Time;durP1;ratioP1;P1;durP2;ratioP2;P2;SDS_P1;SDS_P2;PMS_P1;PMS_P2;Temp;Humidity;BMP_temperature;BMP_pressure;BME280_temperature;BME280_humidity;BME280_pressure;Samples;Min_cycle;Max_cycle;Signal;HPM_P1;HPM_P2
2024/03/20 00:00:20;;;;;;;8.25;4.28;;;12.10;99.90;;;;;;5028525;28;20063;-81
2024/03/20 00:02:46;;;;;;;10.95;4.60;;;12.10;99.90;;;;;;5032254;28;20100;-81
2024/03/20 00:05:13;;;;;;;6.95;4.18;;;12.10;99.90;;;;;;5012464;28;20025;-81
2024/03/20 00:07:39;;;;;;;6.57;3.75;;;12.10;99.90;;;;;;5009137;28;20018;-81
2024/03/20 00:10:07;;;;;;;10.50;4.53;;;12.10;99.90;;;;;;5013438;28;20057;-81
2024/03/20 00:12:33;;;;;;;7.53;4.25;;;12.10;99.90;;;;;;5030445;28;20025;-82
2024/03/20 00:14:58;;;;;;;9.27;4.00;;;12.10;99.90;;;;;;5012484;28;20502;-81
2024/03/20 00:17:24;;;;;;;8.15;4.13;;;12.10;99.90;;;;;;5029915;28;20022;-81
2024/03/20 00:19:50;;;;;;;8.27;4.90;;;12.10;99.90;;;;;;5032798;28;20032;-82
2024/03/20 00:22:16;;;;;;;8.30;3.92;;;12.10;99.90;;;;;;5014491;28;20029;-81
2024/03/20 00:24:42;;;;;;;4.45;3.42;;;12.10;99.90;;;;;;5011388;28;20483;-81
2024/03/20 00:27:08;;;;;;;8.85;4.25;;;12.10;99.90;;;;;;5010261;28;20018;-81
2024/03/20 00:29:33;;;;;;;7.03;3.80;;;12.10;99.90;;;;;;5032318;28;20039;-81
2024/03/20 00:31:59;;;;;;;8.43;4.50;;;12.10;99.90;;;;;;5031225;28;20487;-82
2024/03/20 00:34:26;;;;;;;8.15;4.18;;;12.10;99.90;;;;;;5012250;28;20029;-81
2024/03/20 00:36:51;;;;;;;7.30;4.50;;;12.10;99.90;;;;;;5012041;28;20033;-80
2024/03/20 00:39:18;;;;;;;6.00;3.72;;;12.10;99.90;;;;;;5012062;28;20033;-82
2024/03/20 00:41:45;;;;;;;6.35;3.97;;;12.10;99.90;;;;;;5012243;28;20502;-82
2024/03/20 00:44:11;;;;;;;5.60;3.92;;;12.10;99.90;;;;;;5026292;28;20025;-81
2024/03/20 00:46:37;;;;;;;9.25;4.78;;;12.10;99.90;;;;;;5010124;28;20457;-81
2024/03/20 00:49:02;;;;;;;8.23;4.75;;;12.10;99.90;;;;;;5011765;28;20021;-82
2024/03/20 00:51:28;;;;;;;9.68;4.57;;;12.10;99.90;;;;;;5014328;28;20033;-81
2024/03/20 00:53:54;;;;;;;8.70;4.32;;;12.10;99.90;;;;;;5010421;28;20033;-81
2024/03/20 00:56:19;;;;;;;7.85;4.68;;;12.10;99.90;;;;;;5011981;28;20032;-80
2024/03/20 00:58:45;;;;;;;11.25;4.47;;;12.10;99.90;;;;;;5013679;28;20487;-81
2024/03/20 01:01:11;;;;;;;8.98;4.63;;;12.10;99.90;;;;;;5009505;28;20481;-81
2024/03/20 01:03:37;;;;;;;9.07;4.22;;;12.10;99.90;;;;;;5028787;28;20509;-82
2024/03/20 01:06:03;;;;;;;6.85;4.35;;;12.10;99.90;;;;;;5008943;28;20499;-81
2024/03/20 01:08:29;;;;;;;7.63;4.53;;;12.00;99.90;;;;;;5028067;28;20029;-80
2024/03/20 01:10:55;;;;;;;8.57;4.60;;;12.10;99.90;;;;;;5010406;28;20455;-81
2024/03/20 01:13:22;;;;;;;6.05;3.95;;;12.00;99.90;;;;;;5031256;28;20100;-80
2024/03/20 01:15:48;;;;;;;8.02;4.30;;;12.00;99.90;;;;;;5012177;28;20031;-80
2024/03/20 01:18:16;;;;;;;8.45;3.90;;;12.10;99.90;;;;;;5011013;28;20457;-82
2024/03/20 01:20:42;;;;;;;6.55;4.15;;;12.00;99.90;;;;;;5012766;28;20049;-81
2024/03/20 01:23:07;;;;;;;7.25;4.18;;;12.00;99.90;;;;;;5031548;28;20064;-82
2024/03/20 01:25:33;;;;;;;8.90;4.22;;;12.00;99.90;;;;;;5008791;28;20056;-82
2024/03/20 01:27:59;;;;;;;10.02;4.65;;;12.00;99.90;;;;;;5010202;28;20034;-82
2024/03/20 01:30:24;;;;;;;10.50;4.07;;;12.00;99.90;;;;;;5013584;28;20074;-80
2024/03/20 01:32:50;;;;;;;9.65;4.65;;;12.00;99.90;;;;;;5010831;28;20029;-81
2024/03/20 01:35:16;;;;;;;13.32;4.75;;;12.00;99.90;;;;;;5029846;28;20049;-81
2024/03/20 01:37:41;;;;;;;10.32;4.35;;;12.00;99.90;;;;;;5011978;28;20036;-81
2024/03/20 01:40:07;;;;;;;17.38;4.75;;;12.00;99.90;;;;;;5009045;28;20026;-81
2024/03/20 01:42:33;;;;;;;8.05;5.05;;;12.00;99.90;;;;;;5028182;28;20103;-82
2024/03/20 01:45:17;;;;;;;8.60;5.13;;;12.00;99.90;;;;;;5005359;28;20029;-81
2024/03/20 01:47:46;;;;;;;7.00;4.65;;;12.00;99.90;;;;;;5008866;28;20100;-81
2024/03/20 01:50:13;;;;;;;6.90;4.30;;;12.00;99.90;;;;;;5032586;28;20159;-81
2024/03/20 01:52:52;;;;;;;8.52;4.20;;;12.00;99.90;;;;;;5012277;28;20044;-81
2024/03/20 01:55:20;;;;;;;6.65;4.55;;;12.00;99.90;;;;;;5028771;28;20052;-82
2024/03/20 01:57:47;;;;;;;8.65;4.55;;;12.00;99.90;;;;;;5011251;28;20029;-80
2024/03/20 02:00:13;;;;;;;7.53;4.78;;;12.00;99.90;;;;;;5032069;28;20030;-81
2024/03/20 02:02:42;;;;;;;6.45;4.20;;;12.00;99.90;;;;;;5029344;28;20022;-80
2024/03/20 02:05:07;;;;;;;8.35;4.60;;;12.00;99.90;;;;;;5027654;28;20120;-80
2024/03/20 02:07:33;;;;;;;6.45;4.43;;;12.00;99.90;;;;;;5029626;28;20100;-82
2024/03/20 02:09:58;;;;;;;9.52;4.75;;;12.00;99.90;;;;;;5030771;28;20025;-80
2024/03/20 02:12:24;;;;;;;8.68;4.63;;;12.00;99.90;;;;;;5027423;28;20033;-82
2024/03/20 02:14:50;;;;;;;8.48;4.45;;;12.00;99.90;;;;;;5011253;28;20040;-82
2024/03/20 02:17:16;;;;;;;8.18;4.25;;;12.00;99.90;;;;;;5030317;28;20018;-82
2024/03/20 02:19:41;;;;;;;10.45;5.18;;;12.00;99.90;;;;;;5025355;28;20032;-80
2024/03/20 02:22:07;;;;;;;8.95;4.60;;;12.00;99.90;;;;;;5009096;28;20036;-80
2024/03/20 02:24:32;;;;;;;10.90;5.00;;;12.00;99.90;;;;;;5012625;28;20406;-81
2024/03/20 02:26:58;;;;;;;8.93;4.32;;;12.00;99.90;;;;;;5008561;28;20042;-81
2024/03/20 02:29:23;;;;;;;9.07;5.00;;;12.00;99.90;;;;;;5012153;28;20033;-81
2024/03/20 02:31:49;;;;;;;7.00;4.25;;;12.00;99.90;;;;;;5029948;28;20025;-81
2024/03/20 02:34:15;;;;;;;9.20;4.60;;;12.00;99.90;;;;;;5027784;28;20025;-81
2024/03/20 02:36:40;;;;;;;9.77;5.05;;;12.00;99.90;;;;;;5009449;28;20048;-81
2024/03/20 02:39:06;;;;;;;10.52;5.70;;;11.90;99.90;;;;;;5007030;28;20022;-80
2024/03/20 02:41:32;;;;;;;7.88;4.95;;;12.00;99.90;;;;;;5011119;28;20806;-82
2024/03/20 02:43:57;;;;;;;8.15;4.60;;;11.90;99.90;;;;;;5010740;28;20424;-81
2024/03/20 02:46:23;;;;;;;8.15;4.80;;;12.00;99.90;;;;;;5031199;28;20075;-82
2024/03/20 02:48:48;;;;;;;8.27;4.97;;;12.00;99.90;;;;;;5027634;28;20021;-82
2024/03/20 02:51:14;;;;;;;8.93;5.50;;;12.00;99.90;;;;;;5009167;28;20109;-82
2024/03/20 02:53:39;;;;;;;8.52;5.05;;;11.90;99.90;;;;;;5011055;28;20052;-80
2024/03/20 02:56:05;;;;;;;9.80;5.00;;;11.90;99.90;;;;;;5008868;28;20022;-81
2024/03/20 02:58:31;;;;;;;9.30;4.90;;;11.90;99.90;;;;;;5026086;28;20037;-81
2024/03/20 03:00:57;;;;;;;8.98;4.78;;;11.90;99.90;;;;;;5009904;28;20021;-81
2024/03/20 03:03:22;;;;;;;7.40;4.82;;;12.00;99.90;;;;;;5029051;28;20025;-81
2024/03/20 03:05:48;;;;;;;8.15;5.05;;;11.90;99.90;;;;;;5023439;28;20113;-81
2024/03/20 03:08:13;;;;;;;11.95;5.63;;;11.90;99.90;;;;;;5008489;28;20108;-82
2024/03/20 03:10:39;;;;;;;7.80;5.22;;;11.90;99.90;;;;;;5011654;28;20468;-81
2024/03/20 03:13:04;;;;;;;8.77;5.10;;;11.90;99.90;;;;;;5008090;28;20030;-82
2024/03/20 03:15:33;;;;;;;8.65;5.38;;;11.90;99.90;;;;;;5027768;28;20030;-81
2024/03/20 03:17:59;;;;;;;11.70;5.22;;;11.90;99.90;;;;;;5011225;28;20061;-80
2024/03/20 03:20:26;;;;;;;9.15;5.70;;;11.90;99.90;;;;;;5004069;28;20064;-82
2024/03/20 03:22:52;;;;;;;11.25;5.43;;;11.90;99.90;;;;;;5025934;28;20029;-81
2024/03/20 03:25:18;;;;;;;10.52;5.78;;;11.90;99.90;;;;;;5008674;28;20022;-82
2024/03/20 03:27:44;;;;;;;11.68;5.45;;;11.90;99.90;;;;;;5029100;28;20037;-81
2024/03/20 03:30:10;;;;;;;13.73;5.95;;;11.90;99.90;;;;;;5009626;28;20017;-81
2024/03/20 03:32:37;;;;;;;9.18;5.78;;;11.90;99.90;;;;;;5031538;28;20554;-81
2024/03/20 03:35:06;;;;;;;11.15;5.38;;;11.90;99.90;;;;;;5023885;28;20014;-81
2024/03/20 03:37:32;;;;;;;11.03;5.97;;;11.90;99.90;;;;;;5029339;28;20483;-82
2024/03/20 03:40:00;;;;;;;10.35;5.05;;;11.90;99.90;;;;;;5011204;28;20864;-82
2024/03/20 03:42:28;;;;;;;9.32;5.43;;;11.90;99.90;;;;;;5005610;28;20072;-82
2024/03/20 03:44:54;;;;;;;10.57;5.53;;;11.90;99.90;;;;;;5008215;28;20464;-81
2024/03/20 03:47:20;;;;;;;11.10;6.13;;;11.90;99.90;;;;;;5010625;28;20030;-81
2024/03/20 03:49:45;;;;;;;11.18;5.50;;;11.90;99.90;;;;;;5011463;28;20029;-81
2024/03/20 03:52:11;;;;;;;8.70;5.82;;;11.90;99.90;;;;;;5008078;28;20029;-81
2024/03/20 03:54:36;;;;;;;10.63;6.10;;;11.80;99.90;;;;;;5027356;28;20040;-81
2024/03/20 03:57:02;;;;;;;8.73;5.45;;;11.80;99.90;;;;;;5028552;28;20049;-81
2024/03/20 03:59:28;;;;;;;11.20;5.90;;;11.80;99.90;;;;;;5011270;28;20044;-81
2024/03/20 04:01:54;;;;;;;12.10;6.25;;;11.80;99.90;;;;;;5024862;28;20037;-81
2024/03/20 04:04:19;;;;;;;10.18;5.88;;;11.80;99.90;;;;;;5023614;28;20025;-81
2024/03/20 04:06:45;;;;;;;11.32;5.82;;;11.80;99.90;;;;;;5028460;28;20029;-81
2024/03/20 04:09:10;;;;;;;11.35;6.55;;;11.80;99.90;;;;;;5025927;28;20064;-82
2024/03/20 04:11:37;;;;;;;11.85;5.70;;;11.80;99.90;;;;;;5003567;28;20014;-81
2024/03/20 04:14:07;;;;;;;9.98;5.30;;;11.80;99.90;;;;;;5011301;28;20025;-81
2024/03/20 04:16:34;;;;;;;11.80;6.60;;;11.80;99.90;;;;;;5031100;28;20029;-81
2024/03/20 04:19:00;;;;;;;11.63;6.18;;;11.80;99.90;;;;;;5031404;28;20018;-81
2024/03/20 04:21:26;;;;;;;11.93;6.93;;;11.80;99.90;;;;;;5011975;28;20053;-81
2024/03/20 04:23:51;;;;;;;13.63;6.78;;;11.80;99.90;;;;;;5014505;28;20491;-80
2024/03/20 04:26:17;;;;;;;17.90;6.50;;;11.80;99.90;;;;;;5031791;28;20433;-81
2024/03/20 04:28:42;;;;;;;9.73;5.95;;;11.80;99.90;;;;;;5032153;28;20032;-81
2024/03/20 04:31:13;;;;;;;13.20;6.40;;;11.80;99.90;;;;;;5031310;28;20530;-81
2024/03/20 04:33:39;;;;;;;13.95;7.18;;;11.80;99.90;;;;;;5035108;28;20053;-82
2024/03/20 04:36:05;;;;;;;10.50;6.43;;;11.80;99.90;;;;;;5011210;28;20049;-81
2024/03/20 04:38:30;;;;;;;16.42;6.35;;;11.80;99.90;;;;;;5029662;28;20451;-81
2024/03/20 04:40:56;;;;;;;10.60;6.95;;;11.80;99.90;;;;;;5011713;28;20433;-80
2024/03/20 04:43:21;;;;;;;13.13;6.70;;;11.80;99.90;;;;;;5014130;28;20707;-81
2024/03/20 04:45:47;;;;;;;13.80;6.30;;;11.80;99.90;;;;;;5032072;28;20087;-83
2024/03/20 04:48:12;;;;;;;12.18;6.35;;;11.80;99.90;;;;;;5012220;28;20013;-80
2024/03/20 04:50:38;;;;;;;11.07;7.10;;;11.80;99.90;;;;;;5014305;28;20079;-83
2024/03/20 04:53:04;;;;;;;11.68;6.15;;;11.80;99.90;;;;;;5010544;28;20079;-82
2024/03/20 04:55:29;;;;;;;11.02;5.93;;;11.80;99.90;;;;;;5029558;28;20108;-81
2024/03/20 04:57:55;;;;;;;16.00;6.75;;;11.80;99.90;;;;;;5012899;28;20117;-83
2024/03/20 05:00:20;;;;;;;13.50;6.53;;;11.80;99.90;;;;;;5013792;28;20033;-81
2024/03/20 05:02:46;;;;;;;13.35;6.88;;;11.80;99.90;;;;;;5010663;28;20036;-80
2024/03/20 05:05:12;;;;;;;14.23;7.00;;;11.80;99.90;;;;;;5026370;28;20435;-81
2024/03/20 05:07:37;;;;;;;14.13;7.22;;;11.80;99.90;;;;;;5013383;28;20066;-81
2024/03/20 05:10:04;;;;;;;11.75;6.45;;;11.80;99.90;;;;;;5013122;28;20021;-82
2024/03/20 05:12:33;;;;;;;12.50;7.35;;;11.70;99.90;;;;;;5031332;28;20025;-81
2024/03/20 05:14:59;;;;;;;12.90;6.90;;;11.80;99.90;;;;;;5013459;28;20411;-81
2024/03/20 05:17:25;;;;;;;13.07;7.18;;;11.80;99.90;;;;;;5012845;28;20028;-81
2024/03/20 05:19:50;;;;;;;12.65;7.13;;;11.80;99.90;;;;;;5013166;28;20027;-81
2024/03/20 05:22:16;;;;;;;16.25;6.95;;;11.70;99.90;;;;;;5007846;28;20033;-81
2024/03/20 05:24:41;;;;;;;13.73;7.05;;;11.80;99.90;;;;;;5013700;28;20017;-81
2024/03/20 05:27:07;;;;;;;16.30;7.63;;;11.70;99.90;;;;;;5005181;28;20024;-80
2024/03/20 05:29:33;;;;;;;11.23;6.65;;;11.80;99.90;;;;;;5031182;28;20026;-80
2024/03/20 05:31:59;;;;;;;11.98;7.07;;;11.80;99.90;;;;;;5031292;28;20159;-81
2024/03/20 05:34:24;;;;;;;12.65;7.50;;;11.80;99.90;;;;;;5012646;28;20556;-81
2024/03/20 05:36:50;;;;;;;12.00;7.15;;;11.70;99.90;;;;;;5029965;28;20083;-81
2024/03/20 05:39:15;;;;;;;13.15;6.78;;;11.80;99.90;;;;;;5030267;28;20438;-81
2024/03/20 05:41:41;;;;;;;13.70;6.95;;;11.70;99.90;;;;;;5029605;28;20033;-80
2024/03/20 05:44:06;;;;;;;15.52;7.25;;;11.80;99.90;;;;;;5012763;28;20013;-81
2024/03/20 05:46:33;;;;;;;9.90;6.43;;;11.70;99.90;;;;;;5010689;28;20030;-81
2024/03/20 05:48:59;;;;;;;16.05;7.07;;;11.70;99.90;;;;;;5007877;28;20022;-82
2024/03/20 05:51:25;;;;;;;15.80;7.55;;;11.80;99.90;;;;;;5007660;28;20475;-82
2024/03/20 05:53:51;;;;;;;16.90;7.32;;;11.70;99.90;;;;;;5013101;28;20022;-81
2024/03/20 05:56:16;;;;;;;14.27;7.50;;;11.80;99.90;;;;;;5030820;28;20032;-81
2024/03/20 05:58:45;;;;;;;14.00;7.70;;;11.70;99.90;;;;;;5012441;28;20040;-81
2024/03/20 06:01:10;;;;;;;20.92;8.43;;;11.70;99.90;;;;;;5009587;28;20017;-81
2024/03/20 06:03:36;;;;;;;15.07;7.90;;;11.70;99.90;;;;;;5013113;28;20021;-81
2024/03/20 06:06:02;;;;;;;13.77;7.55;;;11.80;99.90;;;;;;5029087;28;20471;-81
2024/03/20 06:08:28;;;;;;;14.40;6.95;;;11.70;99.90;;;;;;5012810;28;20025;-81
2024/03/20 06:10:55;;;;;;;16.67;7.65;;;11.80;99.90;;;;;;5011582;28;20052;-81
2024/03/20 06:13:20;;;;;;;13.90;7.75;;;11.70;99.90;;;;;;5029829;28;20601;-80
2024/03/20 06:15:46;;;;;;;15.40;8.18;;;11.80;99.90;;;;;;5012747;28;20100;-81
2024/03/20 06:18:12;;;;;;;14.43;7.68;;;11.80;99.90;;;;;;5027277;28;20025;-82
2024/03/20 06:20:38;;;;;;;13.93;7.00;;;11.80;99.90;;;;;;5026080;28;20022;-81
2024/03/20 06:23:04;;;;;;;13.40;7.20;;;11.80;99.90;;;;;;5011296;28;20491;-82
2024/03/20 06:25:29;;;;;;;13.50;7.38;;;11.80;99.90;;;;;;5026152;28;20029;-82
2024/03/20 06:27:55;;;;;;;14.15;7.40;;;11.80;99.90;;;;;;5006260;28;20024;-81
2024/03/20 06:30:21;;;;;;;12.55;7.28;;;11.80;99.90;;;;;;5009941;28;20021;-80
2024/03/20 06:32:47;;;;;;;12.60;7.18;;;11.70;99.90;;;;;;5006868;28;20036;-80
2024/03/20 06:35:13;;;;;;;16.38;7.47;;;11.70;99.90;;;;;;5027736;28;20484;-81
2024/03/20 06:37:38;;;;;;;13.98;7.70;;;11.70;99.90;;;;;;5020402;28;20029;-82
2024/03/20 06:40:06;;;;;;;17.77;7.60;;;11.80;99.90;;;;;;5003939;28;20021;-81
2024/03/20 06:42:32;;;;;;;14.20;7.22;;;11.70;99.90;;;;;;5008566;28;20064;-83
2024/03/20 06:44:58;;;;;;;11.15;7.15;;;11.70;99.90;;;;;;5025017;28;20452;-82
2024/03/20 06:47:24;;;;;;;13.35;6.97;;;11.70;99.90;;;;;;5006585;28;20053;-82
2024/03/20 06:49:50;;;;;;;14.57;6.15;;;11.80;99.90;;;;;;5005402;28;20655;-82
2024/03/20 06:52:16;;;;;;;10.60;6.07;;;11.80;99.90;;;;;;5007685;28;20033;-81
2024/03/20 06:54:44;;;;;;;11.32;6.70;;;11.80;99.90;;;;;;5011778;28;20045;-81
2024/03/20 06:57:11;;;;;;;11.55;6.03;;;11.80;99.90;;;;;;5011236;28;20112;-80
2024/03/20 06:59:37;;;;;;;14.40;6.85;;;11.80;99.90;;;;;;5008376;28;20079;-80
2024/03/20 07:02:03;;;;;;;11.73;6.55;;;11.80;99.90;;;;;;5011119;28;20707;-82
2024/03/20 07:04:29;;;;;;;14.90;6.65;;;11.80;99.90;;;;;;5012155;28;20037;-81
2024/03/20 07:06:54;;;;;;;10.23;6.20;;;11.80;99.90;;;;;;5011868;28;20021;-82
2024/03/20 07:09:20;;;;;;;12.77;6.32;;;11.80;99.90;;;;;;5029125;28;20032;-80
2024/03/20 07:11:48;;;;;;;10.57;6.13;;;11.80;99.90;;;;;;5029603;28;20507;-82
2024/03/20 07:14:15;;;;;;;12.60;6.68;;;11.80;99.90;;;;;;5007833;28;20072;-81
2024/03/20 07:16:41;;;;;;;9.60;6.15;;;11.80;99.90;;;;;;5005649;28;20030;-80
2024/03/20 07:19:06;;;;;;;11.05;7.00;;;11.80;99.90;;;;;;5011657;28;20784;-82
2024/03/20 07:21:32;;;;;;;13.55;6.65;;;11.80;99.90;;;;;;5011985;28;20032;-80
2024/03/20 07:23:57;;;;;;;14.43;6.72;;;11.80;99.90;;;;;;5011897;28;20029;-81
2024/03/20 07:26:23;;;;;;;13.77;7.47;;;11.80;99.90;;;;;;5011530;28;20021;-81
2024/03/20 07:28:48;;;;;;;12.40;7.32;;;11.80;99.90;;;;;;5011806;28;20021;-81
2024/03/20 07:31:14;;;;;;;11.32;6.25;;;11.80;99.90;;;;;;5007662;28;20101;-81
2024/03/20 07:33:40;;;;;;;16.20;7.88;;;11.90;99.90;;;;;;5029408;28;20095;-81
2024/03/20 07:36:06;;;;;;;15.15;7.20;;;11.90;99.90;;;;;;5009029;28;20057;-81
2024/03/20 07:38:31;;;;;;;15.10;7.45;;;11.90;99.90;;;;;;5008714;28;20037;-81
2024/03/20 07:40:57;;;;;;;12.20;7.07;;;11.90;99.90;;;;;;5010135;28;20025;-80
2024/03/20 07:43:22;;;;;;;14.80;7.65;;;12.00;99.90;;;;;;5012220;28;20489;-81
2024/03/20 07:45:48;;;;;;;18.55;7.63;;;12.00;99.90;;;;;;5027597;28;20109;-82
2024/03/20 07:48:15;;;;;;;13.73;7.70;;;12.00;99.90;;;;;;5008272;28;20026;-82
2024/03/20 07:50:41;;;;;;;18.85;8.20;;;12.00;99.90;;;;;;5014389;28;20550;-81
2024/03/20 07:53:06;;;;;;;20.70;8.73;;;12.10;99.90;;;;;;5015572;28;20029;-82
2024/03/20 07:55:32;;;;;;;19.25;8.55;;;12.10;99.90;;;;;;5014756;28;20502;-81
2024/03/20 07:57:58;;;;;;;18.08;9.05;;;12.10;99.90;;;;;;5030812;28;20086;-81
2024/03/20 08:00:31;;;;;;;17.73;8.40;;;12.10;99.90;;;;;;5032432;28;20041;-81
2024/03/20 08:02:57;;;;;;;20.90;8.75;;;12.20;99.90;;;;;;5014719;28;20632;-81
2024/03/20 08:05:26;;;;;;;18.70;9.13;;;12.20;99.90;;;;;;5015184;28;20029;-81
2024/03/20 08:07:52;;;;;;;18.60;9.32;;;12.20;99.90;;;;;;5031056;28;20021;-81
2024/03/20 08:10:18;;;;;;;14.73;8.75;;;12.30;99.90;;;;;;5032388;28;20029;-81
2024/03/20 08:12:44;;;;;;;19.60;9.10;;;12.30;99.90;;;;;;5037551;28;20022;-82
2024/03/20 08:15:10;;;;;;;15.88;9.10;;;12.40;99.90;;;;;;5032426;28;20128;-81
2024/03/20 08:17:37;;;;;;;16.60;10.30;;;12.60;99.90;;;;;;5014613;28;20021;-83
2024/03/20 08:20:03;;;;;;;17.17;8.63;;;12.60;99.90;;;;;;5004844;28;20018;-83
2024/03/20 08:22:29;;;;;;;15.00;9.05;;;12.80;99.90;;;;;;5032558;28;20017;-81
2024/03/20 08:24:55;;;;;;;18.05;9.35;;;12.90;99.90;;;;;;5032365;28;20062;-81
2024/03/20 08:27:25;;;;;;;21.88;10.27;;;12.90;99.90;;;;;;5008688;28;20022;-82
2024/03/20 08:29:51;;;;;;;17.63;9.50;;;13.00;99.90;;;;;;5006567;28;20074;-82
2024/03/20 08:32:17;;;;;;;19.45;9.65;;;13.10;99.90;;;;;;5012913;28;20025;-81
2024/03/20 08:34:43;;;;;;;15.60;8.38;;;13.30;99.90;;;;;;5028014;28;20018;-81
2024/03/20 08:37:09;;;;;;;16.67;8.27;;;13.30;99.90;;;;;;5024506;28;20498;-83
2024/03/20 08:39:35;;;;;;;19.75;9.07;;;13.50;99.90;;;;;;5012908;28;20029;-83
2024/03/20 08:42:01;;;;;;;20.20;9.43;;;13.60;99.90;;;;;;5010662;28;20032;-82
2024/03/20 08:44:26;;;;;;;15.93;9.07;;;13.80;99.90;;;;;;5032172;28;20126;-82
2024/03/20 08:46:52;;;;;;;19.95;9.00;;;14.00;99.90;;;;;;5013428;28;20017;-84
2024/03/20 08:49:17;;;;;;;15.07;9.00;;;14.00;99.90;;;;;;5010691;28;20391;-81
2024/03/20 08:51:43;;;;;;;17.65;10.13;;;14.10;99.90;;;;;;5007389;28;20071;-82
2024/03/20 08:54:09;;;;;;;22.55;12.18;;;14.20;99.90;;;;;;5013663;28;20120;-81
2024/03/20 08:56:34;;;;;;;21.80;11.02;;;14.30;99.90;;;;;;5012228;28;20053;-83
2024/03/20 08:59:00;;;;;;;24.48;10.55;;;14.40;99.90;;;;;;5012163;28;20049;-83
2024/03/20 09:01:26;;;;;;;18.33;10.38;;;14.50;99.90;;;;;;5010384;28;20025;-83
2024/03/20 09:03:52;;;;;;;22.17;10.05;;;14.50;99.90;;;;;;5013331;28;20017;-83
2024/03/20 09:06:18;;;;;;;18.90;10.63;;;14.60;99.90;;;;;;5014049;28;20064;-82
2024/03/20 09:08:43;;;;;;;19.35;11.63;;;14.70;99.90;;;;;;5013634;28;20017;-82
2024/03/20 09:11:09;;;;;;;20.13;11.15;;;14.70;99.90;;;;;;5029087;28;20032;-82
2024/03/20 09:13:34;;;;;;;16.65;10.57;;;14.80;99.90;;;;;;5013793;28;20053;-83
2024/03/20 09:16:00;;;;;;;18.02;10.63;;;14.90;99.90;;;;;;5013842;28;20104;-82
2024/03/20 09:18:26;;;;;;;17.70;11.10;;;15.00;99.90;;;;;;5029561;28;20060;-81
2024/03/20 09:20:52;;;;;;;26.17;13.48;;;15.10;99.90;;;;;;5013902;28;20075;-82
2024/03/20 09:23:18;;;;;;;23.27;11.85;;;15.10;99.90;;;;;;5011015;28;20076;-82
2024/03/20 09:25:44;;;;;;;25.63;7.25;;;15.20;99.90;;;;;;5013901;28;20014;-83
2024/03/20 09:28:10;;;;;;;10.52;4.13;;;15.20;99.90;;;;;;5013511;28;20025;-79
2024/03/20 09:30:37;;;;;;;19.45;8.93;;;15.20;99.90;;;;;;5013462;28;20021;-80
2024/03/20 09:33:03;;;;;;;18.55;7.20;;;15.20;99.90;;;;;;5013483;28;20022;-81
2024/03/20 09:35:28;;;;;;;19.77;10.65;;;15.30;99.90;;;;;;5030993;28;20572;-80
2024/03/20 09:37:54;;;;;;;21.63;12.48;;;15.50;99.90;;;;;;5013203;28;20025;-82
2024/03/20 09:40:24;;;;;;;24.58;13.90;;;15.90;99.90;;;;;;5013347;28;20032;-80
2024/03/20 09:42:53;;;;;;;23.60;11.13;;;16.10;99.90;;;;;;5030943;28;20022;-81
2024/03/20 09:45:20;;;;;;;40.47;12.38;;;16.20;99.90;;;;;;5006163;28;20079;-82
2024/03/20 09:47:49;;;;;;;29.08;10.77;;;16.30;99.90;;;;;;5010864;28;20029;-82
2024/03/20 09:50:14;;;;;;;23.05;9.90;;;16.40;99.90;;;;;;5013307;28;20022;-81
2024/03/20 09:52:40;;;;;;;14.02;8.60;;;16.40;99.90;;;;;;5009363;28;20071;-82
2024/03/20 09:55:07;;;;;;;14.65;8.18;;;16.40;99.90;;;;;;5012170;28;20021;-80
2024/03/20 09:57:33;;;;;;;14.38;7.65;;;16.50;99.90;;;;;;5026753;28;20438;-80
2024/03/20 09:59:59;;;;;;;8.45;4.82;;;16.60;99.90;;;;;;5008837;28;20033;-81
2024/03/20 10:02:26;;;;;;;9.20;3.58;;;16.30;99.90;;;;;;5023758;28;20079;-81
2024/03/20 10:04:53;;;;;;;5.75;3.25;;;15.80;99.90;;;;;;5027181;28;20017;-79
2024/03/20 10:07:19;;;;;;;7.13;3.78;;;15.60;99.90;;;;;;5026214;28;20392;-80
2024/03/20 10:09:45;;;;;;;5.85;3.67;;;15.50;99.90;;;;;;5007383;28;20025;-80
2024/03/20 10:12:15;;;;;;;6.03;3.88;;;15.40;99.90;;;;;;5006719;28;20040;-80
2024/03/20 10:14:41;;;;;;;6.63;3.42;;;15.40;99.90;;;;;;5030637;28;20113;-79
2024/03/20 10:17:11;;;;;;;7.20;3.30;;;15.40;99.90;;;;;;5006292;28;20530;-81
2024/03/20 10:19:38;;;;;;;6.28;3.67;;;15.40;99.90;;;;;;5024427;28;20037;-82
2024/03/20 10:22:04;;;;;;;6.85;3.78;;;15.40;99.90;;;;;;5011115;28;20030;-81
2024/03/20 10:24:31;;;;;;;7.05;3.38;;;15.40;99.90;;;;;;5021547;28;20028;-81
2024/03/20 10:26:57;;;;;;;6.40;4.05;;;15.40;99.90;;;;;;5025057;28;20057;-80
2024/03/20 10:29:25;;;;;;;5.28;2.85;;;15.40;99.90;;;;;;5027827;28;20444;-80
2024/03/20 10:31:54;;;;;;;5.68;3.30;;;15.40;99.90;;;;;;5011407;28;20021;-80
2024/03/20 10:34:22;;;;;;;7.30;3.40;;;15.40;99.90;;;;;;5012386;28;20030;-79
2024/03/20 10:36:48;;;;;;;5.03;3.10;;;15.50;99.90;;;;;;5012016;28;20395;-80
2024/03/20 10:39:18;;;;;;;9.57;3.78;;;15.40;99.90;;;;;;5012559;28;20022;-81
2024/03/20 10:41:47;;;;;;;5.30;3.58;;;15.50;99.90;;;;;;5028924;28;20523;-80
2024/03/20 10:44:17;;;;;;;8.15;4.13;;;15.50;99.90;;;;;;5010484;28;20030;-79
2024/03/20 10:46:57;;;;;;;8.60;3.45;;;15.40;99.90;;;;;;5029287;28;20013;-81
2024/03/20 10:49:23;;;;;;;6.40;3.60;;;15.40;99.90;;;;;;5026828;28;20084;-81
2024/03/20 10:51:51;;;;;;;10.23;4.47;;;15.40;99.90;;;;;;5030054;28;20978;-82
2024/03/20 10:54:18;;;;;;;13.95;3.83;;;15.40;99.90;;;;;;5011950;28;20483;-81
2024/03/20 10:56:47;;;;;;;20.73;3.80;;;15.50;99.90;;;;;;5012100;28;20025;-80
2024/03/20 10:59:20;;;;;;;19.70;4.28;;;15.40;99.90;;;;;;5027446;28;20041;-81
2024/03/20 11:02:14;;;;;;;14.77;4.15;;;15.40;99.90;;;;;;5007757;28;20125;-79
2024/03/20 11:04:41;;;;;;;18.90;3.58;;;15.40;99.90;;;;;;5029251;28;20544;-80
2024/03/20 11:07:25;;;;;;;20.60;3.95;;;15.40;99.90;;;;;;5011803;28;20103;-79
2024/03/20 11:09:51;;;;;;;15.80;4.00;;;15.40;99.90;;;;;;5011515;28;20029;-81
2024/03/20 11:12:27;;;;;;;9.93;3.85;;;15.40;99.90;;;;;;5029404;28;20372;-79
2024/03/20 11:14:52;;;;;;;17.50;3.40;;;15.40;99.90;;;;;;5026012;28;20033;-79
2024/03/20 11:17:20;;;;;;;7.68;3.58;;;15.30;99.90;;;;;;5011563;28;20026;-80
2024/03/20 11:19:46;;;;;;;22.95;4.07;;;15.40;99.90;;;;;;5029215;28;20121;-82
2024/03/20 11:22:22;;;;;;;18.15;3.53;;;15.50;99.90;;;;;;5011181;28;20124;-81
2024/03/20 11:24:50;;;;;;;21.92;4.20;;;15.50;99.90;;;;;;5012743;28;20017;-80
2024/03/20 11:27:16;;;;;;;15.13;3.70;;;15.50;99.90;;;;;;5011806;28;20021;-81
2024/03/20 11:29:45;;;;;;;13.32;2.83;;;15.50;99.90;;;;;;5015729;28;20031;-80
2024/03/20 11:32:16;;;;;;;9.88;3.65;;;15.40;99.90;;;;;;5012987;28;20654;-80
2024/03/20 11:34:41;;;;;;;;;;;15.50;99.90;;;;;;5030928;28;20075;-80
2024/03/20 11:37:19;;;;;;;5.80;2.90;;;15.40;99.90;;;;;;5011323;28;19909;-81
2024/03/20 11:39:46;;;;;;;13.50;3.25;;;15.40;99.90;;;;;;5033316;28;20084;-79
2024/03/20 11:42:16;;;;;;;6.80;2.90;;;15.40;99.90;;;;;;5015578;28;20029;-80
2024/03/20 11:44:42;;;;;;;12.55;2.83;;;15.40;99.90;;;;;;5031892;28;20469;-80
2024/03/20 11:47:11;;;;;;;8.50;2.60;;;15.50;99.90;;;;;;5032988;28;20116;-79
2024/03/20 11:49:48;;;;;;;14.27;3.42;;;15.40;99.90;;;;;;5015214;28;20040;-81
2024/03/20 11:52:15;;;;;;;12.82;3.17;;;15.50;99.90;;;;;;5033144;28;20025;-80
2024/03/20 11:54:41;;;;;;;15.45;3.28;;;15.40;99.90;;;;;;5015272;28;20471;-80
2024/03/20 11:57:12;;;;;;;6.70;2.92;;;15.40;99.90;;;;;;5014743;28;20124;-80
2024/03/20 11:59:38;;;;;;;14.85;3.47;;;15.50;99.90;;;;;;5015223;28;20087;-80
2024/03/20 12:02:05;;;;;;;4.97;3.08;;;15.50;99.90;;;;;;5032796;28;20044;-79
2024/03/20 12:04:34;;;;;;;4.38;2.55;;;15.40;99.90;;;;;;5014697;28;20022;-79
2024/03/20 12:07:00;;;;;;;10.93;3.17;;;15.40;99.90;;;;;;5015116;28;20104;-80
2024/03/20 12:09:26;;;;;;;7.25;2.60;;;15.40;99.90;;;;;;5015234;28;20543;-79
2024/03/20 12:11:52;;;;;;;6.93;3.13;;;15.50;99.90;;;;;;5032406;28;20030;-80
2024/03/20 12:14:18;;;;;;;4.05;2.08;;;15.50;99.90;;;;;;5011955;28;20017;-80
2024/03/20 12:16:44;;;;;;;7.18;2.50;;;15.50;99.90;;;;;;5014753;28;20026;-79
2024/03/20 12:19:10;;;;;;;6.75;2.60;;;15.50;99.90;;;;;;5014190;28;20041;-80
2024/03/20 12:21:35;;;;;;;5.97;2.10;;;15.50;99.90;;;;;;5011853;28;20025;-80
2024/03/20 12:24:01;;;;;;;6.15;2.47;;;15.40;99.90;;;;;;5011624;28;20021;-80
2024/03/20 12:26:28;;;;;;;5.90;2.28;;;15.40;99.90;;;;;;5014953;28;20014;-79
2024/03/20 12:28:54;;;;;;;4.97;2.35;;;15.40;99.90;;;;;;5028933;28;20018;-79
2024/03/20 12:31:22;;;;;;;5.22;2.17;;;15.40;99.90;;;;;;5014563;28;20093;-78
2024/03/20 12:33:50;;;;;;;3.47;2.60;;;15.40;99.90;;;;;;5032544;28;20044;-79
2024/03/20 12:36:20;;;;;;;5.90;2.25;;;15.40;99.90;;;;;;5009783;28;20052;-80